Latest Coastal Weather Observations for Cape Otway

IDV60701

Issued at 11:11 pm EDT Tuesday 28 February 2017 (issued every 10 minutes, with the page automatically refreshed every 10 minutes)

About coastal observations | Map of coastal stations | Coastal observations for VIC | Marine services | Other Formats
Station Details ID: 090015 Name: CAPE OTWAY LIGHTHOUSE Lat: -38.86 Lon: 143.51 Height: 82.0 m
Data from the previous 72 hours. | See also: Recent months at Cape Otway
Date/Time
EDT
Temp
°C
Wind Pressure Rain since
9am
mm
Weather Cloud Vis
km
Sea
Height
m
Swell
Dir  Spd
kts
Gust
kts
hPa Trend Height
m
Period
s
Dir
28/11:00pm 22.3 NE 15 19 1020.7 - 0.0 - - - - - - -
28/10:30pm 21.5 NE 15 19 1020.8 - 0.0 - - - - - - -
28/10:00pm 20.2 ENE 12 17 1021.0 - 0.0 - - - - - - -
28/09:30pm 19.9 NE 13 19 1020.9 - 0.0 - - - - - - -
28/09:00pm 19.6 ENE 12 16 1020.6 - 0.0 - - - - - - -
28/08:30pm 19.7 NE 15 18 1020.2 - 0.0 - - - - - - -
28/08:00pm 21.1 NE 12 16 1020.0 - 0.0 - - - - - - -
28/07:30pm 23.2 NE 11 16 1019.8 - 0.0 - - - - - - -
28/07:00pm 23.1 NE 13 15 1019.8 - 0.0 - - - - - - -
28/06:30pm 21.8 ENE 10 15 1019.9 - 0.0 - - - - - - -
28/06:00pm 22.5 ENE 10 13 1019.8 - 0.0 - - - - - - -
28/05:30pm 20.9 ENE 9 13 1019.9 - 0.0 - - - - - - -
28/05:00pm 21.3 E 12 17 1019.9 - 0.0 - - - - - - -
28/04:30pm 23.2 E 8 13 1020.0 - 0.0 - - - - - - -
28/04:00pm 24.4 E 7 9 1020.2 - 0.0 - - - - - - -
28/03:30pm 23.0 E 8 12 1020.4 - 0.0 - - - - - - -
28/03:00pm 21.2 E 9 13 1020.6 - 0.0 - - - - - - -
28/02:30pm 21.3 E 10 14 1020.7 - 0.0 - - - - - - -
28/02:00pm 21.4 E 9 13 1020.8 - 0.0 - - - - - - -
28/01:30pm 21.4 E 8 11 1021.0 - 0.0 - - - - - - -
28/01:00pm 21.2 E 9 12 1021.2 - 0.0 - - - - - - -
28/12:30pm 20.9 E 9 13 1021.3 - 0.0 - - - - - - -
28/12:00pm 21.4 E 10 13 1021.5 - 0.0 - - - - - - -
28/11:30am 21.2 ESE 9 15 1021.6 - 0.0 - - - - - - -
28/11:00am 22.4 E 9 12 1021.1 - 0.0 - - - - - - -
28/10:30am 21.8 E 9 11 1021.2 - 0.0 - - - - - - -
28/10:00am 21.5 E 9 11 1021.1 - 0.0 - - - - - - -
28/09:30am 21.5 ENE 10 14 1021.1 - 0.0 - - - - - - -
28/09:00am 20.9 ENE 9 12 1021.0 - 0.0 - - - - - - -
28/08:30am 20.3 NE 11 15 1020.8 - 0.0 - - - - - - -
28/08:00am 19.2 NE 9 12 1020.7 - 0.0 - - - - - - -
28/07:30am 18.7 NE 11 13 1020.4 - 0.0 - - - - - - -
28/07:00am 19.3 ENE 8 10 1020.3 - 0.0 - - - - - - -
28/06:30am 19.4 NE 8 11 1020.0 - 0.0 - - - - - - -
28/06:00am 20.7 ENE 8 9 1019.9 - 0.0 - - - - - - -
28/05:30am 18.2 ENE 6 7 1019.8 - 0.0 - - - - - - -
28/05:00am 18.7 E 3 4 1019.9 - 0.0 - - - - - - -
28/04:30am 18.1 ENE 4 5 1019.9 - 0.0 - - - - - - -
28/04:00am 18.5 NE 5 6 1020.0 - 0.0 - - - - - - -
28/03:30am 19.1 NE 7 8 1020.1 - 0.0 - - - - - - -
28/03:00am 20.4 ENE 4 8 1020.3 - 0.0 - - - - - - -
28/02:30am 21.9 NE 12 16 1020.0 - 0.0 - - - - - - -
28/02:00am 23.0 NE 13 17 1020.2 - 0.0 - - - - - - -
28/01:30am 22.6 NE 14 18 1020.3 - 0.0 - - - - - - -
28/01:00am 21.6 NE 13 17 1020.5 - 0.0 - - - - - - -
28/12:30am 21.9 NE 14 18 1020.5 - 0.0 - - - - - - -
28/12:00am 21.4 NE 15 18 1020.6 - 0.0 - - - - - - -
 
Date/Time
EDT
Temp
°C
Wind Pressure Rain since
9am
mm
Weather Cloud Vis
km
Sea
Height
m
Swell
Dir  Spd
kts
Gust
kts
hPa Trend Height
m
Period
s
Dir
27/11:30pm 20.9 NE 12 16 1020.8 - 0.0 - - - - - - -
27/11:00pm 21.2 NE 13 17 1020.9 - 0.0 - - - - - - -
27/10:30pm 21.1 NE 15 18 1020.9 - 0.0 - - - - - - -
27/10:00pm 21.0 NE 13 19 1020.9 - 0.0 - - - - - - -
27/09:30pm 20.9 NE 15 19 1020.7 - 0.0 - - - - - - -
27/09:00pm 20.8 NE 15 20 1020.7 - 0.0 - - - - - - -
27/08:30pm 20.7 NE 15 20 1020.5 - 0.0 - - - - - - -
27/08:00pm 20.6 NE 15 19 1020.4 - 0.0 - - - - - - -
27/07:30pm 20.8 ENE 13 18 1020.3 - 0.0 - - - - - - -
27/07:00pm 20.8 ENE 14 18 1020.2 - 0.0 - - - - - - -
27/06:30pm 21.9 ENE 12 16 1020.1 - 0.0 - - - - - - -
27/06:00pm 22.7 ENE 11 15 1020.1 - 0.0 - - - - - - -
27/05:30pm 22.0 E 11 15 1020.2 - 0.0 - - - - - - -
27/05:00pm 22.5 E 9 12 1020.2 - 0.0 - - - - - - -
27/04:30pm 21.5 E 10 13 1020.5 - 0.0 - - - - - - -
27/04:00pm 21.4 E 11 15 1020.6 - 0.0 - - - - - - -
27/03:30pm 20.5 E 11 13 1020.8 - 0.0 - - - - - - -
27/03:00pm 20.4 E 10 15 1021.0 - 0.0 - - - - - - -
27/02:30pm 20.7 E 12 17 1021.1 - 0.0 - - - - - - -
27/02:00pm 21.2 E 11 15 1021.2 - 0.0 - - - - - - -
27/01:30pm 21.5 E 10 14 1021.2 - 0.0 - - - - - - -
27/01:00pm 21.0 E 11 14 1021.4 - 0.0 - - - - - - -
27/12:30pm 20.6 E 11 15 1021.6 - 0.0 - - - - - - -
27/12:00pm 20.1 E 12 16 1021.7 - 0.0 - - - - - - -
27/11:30am 20.5 E 8 12 1021.9 - 0.0 - - - - - - -
27/11:00am 20.5 E 9 15 1021.9 - 0.0 - - - - - - -
27/10:30am 20.8 ENE 13 17 1021.8 - 0.0 - - - - - - -
27/10:00am 20.2 ENE 13 18 1021.7 - 0.0 - - - - - - -
27/09:30am 19.5 ENE 13 19 1021.6 - 0.0 - - - - - - -
27/09:00am 18.5 ENE 16 21 1021.5 - 0.0 - - - - - - -
27/08:30am 17.8 ENE 15 21 1021.4 - 0.0 - - - - - - -
27/08:00am 17.1 ENE 15 19 1021.3 - 0.0 - - - - - - -
27/07:30am 16.5 ENE 15 20 1021.1 - 0.0 - - - - - - -
27/07:00am 16.4 ENE 13 18 1020.9 - 0.0 - - - - - - -
27/06:30am 16.4 ENE 15 18 1020.6 - 0.0 - - - - - - -
27/06:00am 16.5 ENE 14 18 1020.5 - 0.0 - - - - - - -
27/05:30am 16.5 ENE 14 18 1020.4 - 0.0 - - - - - - -
27/05:00am 16.6 ENE 14 18 1020.2 - 0.0 - - - - - - -
27/04:30am 16.6 ENE 14 18 1020.2 - 0.0 - - - - - - -
27/04:00am 16.7 ENE 14 18 1020.2 - 0.0 - - - - - - -
27/03:30am 16.8 ENE 13 18 1020.3 - 0.0 - - - - - - -
27/03:00am 16.8 ENE 13 17 1020.5 - 0.0 - - - - - - -
27/02:30am 16.9 ENE 14 19 1020.5 - 0.0 - - - - - - -
27/02:00am 17.0 ENE 13 17 1020.6 - 0.0 - - - - - - -
27/01:30am 17.2 ENE 13 17 1020.7 - 0.0 - - - - - - -
27/01:00am 17.4 ENE 14 19 1020.6 - 0.0 - - - - - - -
27/12:30am 17.4 ENE 15 20 1020.7 - 0.0 - - - - - - -
27/12:00am 17.5 ENE 14 19 1020.7 - 0.0 - - - - - - -
 
Date/Time
EDT
Temp
°C
Wind Pressure Rain since
9am
mm
Weather Cloud Vis
km
Sea
Height
m
Swell
Dir  Spd
kts
Gust
kts
hPa Trend Height
m
Period
s
Dir
26/11:30pm 17.7 ENE 16 23 1020.8 - 0.0 - - - - - - -
26/11:00pm 17.9 ENE 16 21 1021.0 - 0.0 - - - - - - -
26/10:30pm 18.0 ENE 16 22 1021.0 - 0.0 - - - - - - -
26/10:00pm 18.0 ENE 15 21 1021.0 - 0.0 - - - - - - -
26/09:30pm 18.1 ENE 17 24 1020.7 - 0.0 - - - - - - -
26/09:00pm 18.0 ENE 16 21 1020.4 - 0.0 - - - - - - -
26/08:51pm 17.9 ENE 15 25 1020.4 - 0.0 - - - - - - -
26/08:30pm 17.9 ENE 16 22 1020.2 - 0.0 - - - - - - -
26/08:00pm 18.1 E 14 19 1020.1 - 0.0 - - - - - - -
26/07:30pm 18.5 E 14 21 1020.2 - 0.0 - - - - - - -
26/07:00pm 18.9 E 14 20 1020.0 - 0.0 - - - - - - -
26/06:30pm 19.3 E 14 21 1019.7 - 0.0 - - - - - - -
26/06:00pm 19.6 E 13 21 1019.8 - 0.0 - - - - - - -
26/05:30pm 19.7 E 13 21 1019.5 - 0.0 - - - - - - -
26/05:00pm 19.8 E 14 21 1019.5 - 0.0 - - - - - - -
26/04:30pm 19.8 E 14 21 1019.8 - 0.0 - - - - - - -
26/04:00pm 19.7 E 15 21 1020.0 - 0.0 - - - - - - -
26/03:30pm 20.0 E 14 21 1020.3 - 0.0 - - - - - - -
26/03:00pm 19.9 ENE 14 23 1020.6 - 0.0 - - - - - - -
26/02:30pm 19.9 ENE 17 24 1020.9 - 0.0 - - - - - - -
26/02:06pm 19.7 E 15 25 1021.1 - 0.0 - - - - - - -
26/02:00pm 19.7 E 16 25 1021.1 - 0.0 - - - - - - -
26/01:30pm 19.4 E 15 21 1021.4 - 0.0 - - - - - - -
26/01:00pm 19.5 E 13 20 1021.5 - 0.0 - - - - - - -
26/12:44pm 19.4 E 15 25 1021.5 - 0.0 - - - - - - -
26/12:30pm 19.5 E 14 20 1021.6 - 0.0 - - - - - - -
26/12:00pm 19.7 ENE 16 21 1021.6 - 0.0 - - - - - - -
26/11:38am 19.5 E 16 26 1021.6 - 0.0 - - - - - - -
26/11:30am 19.4 E 16 22 1021.6 - 0.0 - - - - - - -
26/11:00am 19.1 E 17 26 1021.7 - 0.0 - - - - - - -
26/10:30am 19.1 E 17 30 1022.0 - 0.0 - - - - - - -
26/10:00am 18.6 E 15 25 1022.0 - 0.0 - - - - - - -
26/09:30am 18.4 E 15 24 1021.8 - 0.0 - - - - - - -
26/09:17am 18.1 E 15 25 1021.9 - 0.0 - - - - - - -
26/09:00am 18.1 E 13 24 1021.8 - 0.0 - - - - - - -
26/08:30am 17.7 E 13 22 1021.8 - 0.0 - - - - - - -
26/08:00am 17.3 E 13 21 1021.7 - 0.0 - - - - - - -
26/07:30am 16.9 E 13 21 1021.7 - 0.0 - - - - - - -
26/07:00am 16.9 E 12 21 1021.5 - 0.0 - - - - - - -
26/06:30am 16.8 E 14 22 1021.0 - 0.0 - - - - - - -
26/06:00am 16.7 E 14 22 1020.5 - 0.0 - - - - - - -
26/05:45am 16.7 E 15 26 1020.4 - 0.0 - - - - - - -
26/05:30am 16.8 E 15 22 1020.6 - 0.0 - - - - - - -
26/05:00am 16.8 E 14 22 1020.9 - 0.0 - - - - - - -
26/04:30am 16.8 E 15 22 1020.7 - 0.0 - - - - - - -
26/04:00am 16.8 E 15 25 1020.8 - 0.0 - - - - - - -
26/03:44am 16.8 E 16 26 1021.0 - 0.0 - - - - - - -
26/03:30am 16.7 E 17 26 1020.9 - 0.0 - - - - - - -
26/03:02am 16.9 E 15 26 1021.4 - 0.0 - - - - - - -
26/03:00am 16.9 E 14 26 1021.5 - 0.0 - - - - - - -
26/02:30am 16.8 E 14 24 1021.8 - 0.0 - - - - - - -
26/02:00am 16.8 E 14 25 1022.4 - 0.0 - - - - - - -
26/01:30am 16.8 E 13 23 1022.8 - 0.0 - - - - - - -
26/01:00am 16.6 E 13 22 1022.8 - 0.0 - - - - - - -
26/12:30am 16.6 E 12 19 1023.3 - 0.0 - - - - - - -
26/12:00am 16.5 E 13 23 1023.5 - 0.0 - - - - - - -
 
Date/Time
EDT
Temp
°C
Wind Pressure Rain since
9am
mm
Weather Cloud Vis
km
Sea
Height
m
Swell
Dir  Spd
kts
Gust
kts
hPa Trend Height
m
Period
s
Dir
25/11:30pm 16.4 E 15 23 1023.6 - 0.0 - - - - - - -

Other Formats:

Comma delimited format used in spreadsheet applications
http://www.bom.gov.au/fwo/IDV60701/IDV60701.94842.axf

JavaScript Object Notation format (JSON) in row-major order
http://www.bom.gov.au/fwo/IDV60701/IDV60701.94842.json